Time;durP1;ratioP1;P1;durP2;ratioP2;P2;SDS_P1;SDS_P2;PMS_P1;PMS_P2;Temp;Humidity;BMP_temperature;BMP_pressure;BME280_temperature;BME280_humidity;BME280_pressure;Samples;Min_cycle;Max_cycle;Signal;HPM_P1;HPM_P2
2022/10/21 00:00:26;;;;;;;;;2.00;1.00;;;;;;;;5042852;28;62808;-78
2022/10/21 00:02:51;;;;;;;;;2.00;1.00;;;;;;;;5043497;28;61917;-79
2022/10/21 00:05:16;;;;;;;;;0.00;0.00;;;;;;;;5043758;28;61993;-78
2022/10/21 00:07:42;;;;;;;;;1.00;1.00;;;;;;;;5043655;28;61696;-79
2022/10/21 00:10:07;;;;;;;;;3.33;1.00;;;;;;;;5042560;28;62252;-78
2022/10/21 00:12:33;;;;;;;;;1.00;1.00;;;;;;;;5025429;28;61937;-78
2022/10/21 00:14:58;;;;;;;;;1.67;0.67;;;;;;;;5043087;28;61890;-78
2022/10/21 00:17:23;;;;;;;;;2.00;1.00;;;;;;;;5025535;28;61895;-79
2022/10/21 00:19:49;;;;;;;;;0.33;0.33;;;;;;;;5042151;28;61649;-78
2022/10/21 00:22:14;;;;;;;;;2.00;1.00;;;;;;;;5043274;28;61729;-78
2022/10/21 00:24:39;;;;;;;;;1.00;1.00;;;;;;;;5043110;28;61878;-78
2022/10/21 00:27:05;;;;;;;;;2.67;1.67;;;;;;;;5025136;28;61673;-78
2022/10/21 00:29:30;;;;;;;;;0.00;0.00;;;;;;;;5062407;28;62048;-78
2022/10/21 00:31:55;;;;;;;;;2.00;0.67;;;;;;;;5045302;28;62119;-79
2022/10/21 00:34:21;;;;;;;;;1.33;1.00;;;;;;;;5042470;28;61677;-78
2022/10/21 00:36:46;;;;;;;;;2.00;1.33;;;;;;;;5043243;28;61755;-78
2022/10/21 00:39:12;;;;;;;;;1.00;1.00;;;;;;;;5024170;28;63704;-78
2022/10/21 00:41:37;;;;;;;;;0.67;0.67;;;;;;;;5042911;28;61822;-78
2022/10/21 00:44:06;;;;;;;;;0.67;0.67;;;;;;;;5042583;28;61696;-78
2022/10/21 00:46:38;;;;;;;;;0.67;0.00;;;;;;;;5043143;28;61794;-78
2022/10/21 00:49:11;;;;;;;;;0.75;0.75;;;;;;;;5023640;28;63767;-78
2022/10/21 00:51:36;;;;;;;;;1.00;1.00;;;;;;;;5024683;28;61820;-78
2022/10/21 00:54:03;;;;;;;;;0.00;0.00;;;;;;;;5041300;28;61675;-79
2022/10/21 00:56:30;;;;;;;;;2.00;1.00;;;;;;;;5023352;28;62157;-78
2022/10/21 00:58:57;;;;;;;;;3.33;1.67;;;;;;;;5022437;28;64883;-78
2022/10/21 01:01:23;;;;;;;;;2.33;1.00;;;;;;;;5041136;28;61662;-78
2022/10/21 01:03:49;;;;;;;;;0.00;0.00;;;;;;;;5023159;28;61853;-79
2022/10/21 01:06:14;;;;;;;;;2.67;1.00;;;;;;;;5041178;28;61728;-78
2022/10/21 01:08:40;;;;;;;;;2.00;0.67;;;;;;;;5040471;28;62076;-78
2022/10/21 01:11:09;;;;;;;;;1.00;1.00;;;;;;;;5022882;28;61976;-78
2022/10/21 01:13:34;;;;;;;;;2.00;2.00;;;;;;;;5041047;28;61910;-78
2022/10/21 01:16:06;;;;;;;;;1.75;1.00;;;;;;;;5040846;28;62096;-78
2022/10/21 01:18:34;;;;;;;;;1.00;1.00;;;;;;;;5040196;28;62659;-78
2022/10/21 01:21:08;;;;;;;;;1.00;1.00;;;;;;;;5040663;28;62014;-79
2022/10/21 01:23:52;;;;;;;;;1.00;1.00;;;;;;;;5040842;28;61766;-78
2022/10/21 01:26:36;;;;;;;;;1.00;1.00;;;;;;;;5040933;28;61731;-78
2022/10/21 01:29:20;;;;;;;;;1.00;1.00;;;;;;;;5054417;28;62771;-79
2022/10/21 01:31:45;;;;;;;;;0.00;0.00;;;;;;;;5026553;28;61746;-78
2022/10/21 01:34:10;;;;;;;;;2.00;0.67;;;;;;;;5040592;28;61779;-78
2022/10/21 01:36:40;;;;;;;;;4.00;1.00;;;;;;;;5023023;28;62174;-78
2022/10/21 01:39:05;;;;;;;;;0.00;0.00;;;;;;;;5039925;28;61807;-78
2022/10/21 01:41:33;;;;;;;;;2.00;1.00;;;;;;;;5040864;28;61795;-78
2022/10/21 01:43:58;;;;;;;;;4.33;2.00;;;;;;;;5039850;28;61923;-78
2022/10/21 01:46:36;;;;;;;;;2.00;1.00;;;;;;;;5040089;28;61923;-78
2022/10/21 01:49:06;;;;;;;;;3.00;1.00;;;;;;;;5021646;28;63755;-78
2022/10/21 01:51:33;;;;;;;;;1.00;1.00;;;;;;;;5040580;28;61798;-78
2022/10/21 01:54:18;;;;;;;;;1.33;1.33;;;;;;;;4996755;28;309924;-78
2022/10/21 01:56:45;;;;;;;;;3.00;1.00;;;;;;;;4984243;28;61741;-78
2022/10/21 01:59:13;;;;;;;;;2.00;1.00;;;;;;;;4996430;28;64097;-78
2022/10/21 02:01:38;;;;;;;;;5.33;2.00;;;;;;;;4982507;28;61899;-78
2022/10/21 02:04:04;;;;;;;;;3.00;1.00;;;;;;;;4982185;28;61776;-78
2022/10/21 02:06:30;;;;;;;;;3.67;3.00;;;;;;;;4982619;28;61884;-78
2022/10/21 02:08:55;;;;;;;;;4.00;1.33;;;;;;;;4981720;28;61834;-78
2022/10/21 02:11:20;;;;;;;;;3.33;2.00;;;;;;;;4982144;28;61945;-78
2022/10/21 02:13:57;;;;;;;;;1.00;1.00;;;;;;;;4997423;28;61987;-78
2022/10/21 02:16:25;;;;;;;;;3.00;2.00;;;;;;;;4982341;28;61919;-77
2022/10/21 02:18:50;;;;;;;;;4.75;3.50;;;;;;;;4981390;28;62841;-78
2022/10/21 02:21:18;;;;;;;;;5.75;3.00;;;;;;;;4982015;28;61994;-77
2022/10/21 02:23:52;;;;;;;;;1.67;1.67;;;;;;;;4982094;28;61744;-77
2022/10/21 02:26:17;;;;;;;;;5.00;4.00;;;;;;;;4981786;28;61802;-77
2022/10/21 02:28:43;;;;;;;;;2.00;2.00;;;;;;;;5021918;28;62570;-77
2022/10/21 02:31:11;;;;;;;;;2.00;2.00;;;;;;;;5009195;28;61796;-77
2022/10/21 02:33:48;;;;;;;;;2.00;1.50;;;;;;;;5001841;28;61924;-77
2022/10/21 02:36:23;;;;;;;;;2.00;1.75;;;;;;;;5001481;28;62151;-77
2022/10/21 02:38:55;;;;;;;;;1.00;1.00;;;;;;;;5001075;28;61811;-77
2022/10/21 02:41:22;;;;;;;;;7.75;2.75;;;;;;;;5001021;28;61863;-77
2022/10/21 02:43:53;;;;;;;;;1.00;1.00;;;;;;;;5000123;28;61806;-77
2022/10/21 02:46:18;;;;;;;;;3.00;1.00;;;;;;;;5001377;28;62242;-77
2022/10/21 02:48:45;;;;;;;;;1.00;1.00;;;;;;;;5000779;28;61863;-77
2022/10/21 02:51:10;;;;;;;;;4.50;3.75;;;;;;;;4999960;28;61975;-77
2022/10/21 02:53:36;;;;;;;;;7.25;2.25;;;;;;;;5018014;28;61893;-77
2022/10/21 02:56:01;;;;;;;;;6.00;2.00;;;;;;;;5041853;28;61969;-77
2022/10/21 02:58:26;;;;;;;;;3.00;2.00;;;;;;;;5025775;28;64795;-77
2022/10/21 03:00:52;;;;;;;;;1.00;1.00;;;;;;;;5044603;28;61934;-77
2022/10/21 03:03:17;;;;;;;;;2.33;1.33;;;;;;;;5026293;28;61826;-77
2022/10/21 03:05:42;;;;;;;;;3.33;2.00;;;;;;;;5026676;28;61748;-77
2022/10/21 03:08:08;;;;;;;;;4.00;2.00;;;;;;;;5043729;28;61876;-77
2022/10/21 03:10:33;;;;;;;;;2.00;2.00;;;;;;;;5043914;28;61862;-77
2022/10/21 03:12:59;;;;;;;;;2.25;1.75;;;;;;;;5026554;28;61719;-77
2022/10/21 03:15:24;;;;;;;;;2.25;1.50;;;;;;;;5044318;28;61950;-77
2022/10/21 03:17:49;;;;;;;;;2.00;2.00;;;;;;;;5043711;28;62260;-77
2022/10/21 03:20:15;;;;;;;;;3.25;2.25;;;;;;;;5043800;28;61676;-77
2022/10/21 03:22:40;;;;;;;;;3.00;1.75;;;;;;;;5044213;28;61715;-77
2022/10/21 03:25:05;;;;;;;;;5.00;2.50;;;;;;;;5025979;28;61737;-77
2022/10/21 03:27:31;;;;;;;;;2.75;2.00;;;;;;;;5045579;28;62743;-78
2022/10/21 03:29:57;;;;;;;;;2.75;2.00;;;;;;;;5045071;28;61826;-77
2022/10/21 03:32:22;;;;;;;;;1.75;1.75;;;;;;;;5043784;28;61925;-77
2022/10/21 03:34:47;;;;;;;;;3.25;1.50;;;;;;;;5044349;28;61906;-77
2022/10/21 03:37:12;;;;;;;;;1.50;0.25;;;;;;;;5025327;28;64046;-77
2022/10/21 03:39:38;;;;;;;;;4.00;2.00;;;;;;;;5043645;28;61630;-78
2022/10/21 03:42:03;;;;;;;;;2.00;2.00;;;;;;;;5043664;28;61980;-78
2022/10/21 03:44:28;;;;;;;;;2.25;2.25;;;;;;;;5043841;28;61991;-78
2022/10/21 03:46:53;;;;;;;;;3.00;1.50;;;;;;;;5043387;28;61815;-78
2022/10/21 03:49:19;;;;;;;;;5.25;4.00;;;;;;;;5025334;28;61831;-78
2022/10/21 03:51:44;;;;;;;;;3.00;2.00;;;;;;;;5043851;28;61751;-78
2022/10/21 03:54:09;;;;;;;;;4.25;2.25;;;;;;;;5043191;28;62005;-78
2022/10/21 03:56:34;;;;;;;;;2.00;2.00;;;;;;;;5042815;28;61755;-78
2022/10/21 03:59:00;;;;;;;;;2.00;2.00;;;;;;;;5025219;28;61901;-78
2022/10/21 04:01:25;;;;;;;;;2.75;2.00;;;;;;;;5043669;28;61962;-78
2022/10/21 04:03:50;;;;;;;;;1.25;1.00;;;;;;;;5043617;28;61759;-78
2022/10/21 04:06:16;;;;;;;;;2.00;2.00;;;;;;;;5042996;28;62719;-77
2022/10/21 04:08:41;;;;;;;;;3.00;2.67;;;;;;;;5023778;28;62033;-78
2022/10/21 04:11:06;;;;;;;;;1.25;1.25;;;;;;;;5025496;28;62097;-78
2022/10/21 04:13:31;;;;;;;;;2.00;2.00;;;;;;;;5043639;28;62136;-78
2022/10/21 04:15:58;;;;;;;;;4.00;2.75;;;;;;;;5024707;28;64857;-78
2022/10/21 04:18:23;;;;;;;;;2.00;2.00;;;;;;;;5025183;28;61899;-78
2022/10/21 04:20:48;;;;;;;;;2.25;2.00;;;;;;;;5043344;28;61922;-78
2022/10/21 04:23:14;;;;;;;;;4.00;2.00;;;;;;;;5025259;28;62244;-78
2022/10/21 04:25:39;;;;;;;;;2.50;1.25;;;;;;;;5042362;28;61799;-78
2022/10/21 04:28:04;;;;;;;;;3.50;3.00;;;;;;;;5032041;28;61843;-78
2022/10/21 04:30:29;;;;;;;;;2.25;2.00;;;;;;;;5057695;28;61856;-78
2022/10/21 04:32:55;;;;;;;;;4.25;3.25;;;;;;;;5043393;28;61758;-78
2022/10/21 04:35:20;;;;;;;;;4.75;3.25;;;;;;;;5042424;28;61859;-78
2022/10/21 04:37:45;;;;;;;;;4.25;3.50;;;;;;;;5024801;28;61853;-78
2022/10/21 04:40:10;;;;;;;;;2.00;2.00;;;;;;;;5042899;28;61845;-78
2022/10/21 04:42:36;;;;;;;;;4.00;3.50;;;;;;;;5024908;28;61811;-78
2022/10/21 04:45:01;;;;;;;;;6.25;4.00;;;;;;;;5042252;28;61970;-78
2022/10/21 04:47:26;;;;;;;;;3.50;3.00;;;;;;;;5042954;28;61886;-78
2022/10/21 04:49:51;;;;;;;;;5.00;5.00;;;;;;;;5042105;28;61972;-78
2022/10/21 04:52:17;;;;;;;;;9.25;5.00;;;;;;;;5042657;28;61826;-78
2022/10/21 04:54:42;;;;;;;;;6.25;4.50;;;;;;;;5041693;28;62990;-79
2022/10/21 04:57:07;;;;;;;;;6.00;4.00;;;;;;;;5042808;28;61903;-80
2022/10/21 04:59:32;;;;;;;;;6.25;4.75;;;;;;;;5042927;28;62052;-80
2022/10/21 05:01:58;;;;;;;;;5.00;3.00;;;;;;;;5024777;28;62092;-78
2022/10/21 05:04:23;;;;;;;;;4.00;3.00;;;;;;;;5024094;28;64753;-78
2022/10/21 05:06:48;;;;;;;;;3.25;3.25;;;;;;;;5042244;28;61850;-80
2022/10/21 05:09:13;;;;;;;;;9.25;3.25;;;;;;;;5042493;28;62218;-80
2022/10/21 05:11:39;;;;;;;;;5.00;4.00;;;;;;;;5025819;28;61801;-79
2022/10/21 05:14:04;;;;;;;;;7.00;3.25;;;;;;;;5023893;28;63614;-78
2022/10/21 05:16:29;;;;;;;;;2.00;1.00;;;;;;;;5024389;28;62044;-79
2022/10/21 05:18:54;;;;;;;;;6.25;5.00;;;;;;;;5023960;28;61941;-79
2022/10/21 05:21:20;;;;;;;;;5.50;3.25;;;;;;;;5042425;28;61784;-79
2022/10/21 05:23:45;;;;;;;;;8.00;5.00;;;;;;;;5041372;28;61804;-78
2022/10/21 05:26:10;;;;;;;;;2.25;1.75;;;;;;;;5042394;28;61936;-78
2022/10/21 05:28:37;;;;;;;;;3.00;3.00;;;;;;;;5054525;28;62052;-78
2022/10/21 05:31:03;;;;;;;;;6.00;3.75;;;;;;;;5062617;28;61998;-79
2022/10/21 05:33:28;;;;;;;;;6.00;4.00;;;;;;;;5061954;28;62236;-79
2022/10/21 05:35:59;;;;;;;;;3.00;3.00;;;;;;;;5061932;28;61727;-79
2022/10/21 05:38:25;;;;;;;;;2.75;2.75;;;;;;;;5044192;28;61814;-78
2022/10/21 05:40:50;;;;;;;;;6.50;3.75;;;;;;;;5035495;28;61791;-77
2022/10/21 05:43:15;;;;;;;;;6.25;4.50;;;;;;;;5041632;28;61811;-76
2022/10/21 05:45:41;;;;;;;;;0.00;0.00;;;;;;;;5041869;28;61829;-78
2022/10/21 05:48:06;;;;;;;;;4.75;3.00;;;;;;;;5040955;28;61897;-80
2022/10/21 05:50:31;;;;;;;;;5.00;4.25;;;;;;;;5023040;28;61955;-79
2022/10/21 05:52:57;;;;;;;;;7.50;6.00;;;;;;;;5040920;28;62125;-80
2022/10/21 05:55:23;;;;;;;;;7.00;6.00;;;;;;;;5020034;28;61911;-78
2022/10/21 05:57:48;;;;;;;;;2.67;2.00;;;;;;;;5021375;28;62004;-79
2022/10/21 06:00:13;;;;;;;;;5.75;4.25;;;;;;;;5022146;28;61846;-78
2022/10/21 06:02:39;;;;;;;;;2.25;2.25;;;;;;;;5020153;28;64669;-78
2022/10/21 06:05:04;;;;;;;;;6.00;1.75;;;;;;;;5021460;28;62012;-78
2022/10/21 06:07:29;;;;;;;;;2.33;2.33;;;;;;;;5020757;28;61915;-78
2022/10/21 06:09:55;;;;;;;;;5.25;2.00;;;;;;;;5021544;28;61863;-79
2022/10/21 06:12:20;;;;;;;;;2.00;2.00;;;;;;;;5021307;28;61967;-78
2022/10/21 06:14:45;;;;;;;;;2.00;1.25;;;;;;;;5021870;28;61876;-78
2022/10/21 06:17:11;;;;;;;;;1.00;1.00;;;;;;;;5021954;28;61804;-79
2022/10/21 06:19:36;;;;;;;;;1.00;1.00;;;;;;;;5021565;28;61799;-78
2022/10/21 06:22:01;;;;;;;;;2.00;1.00;;;;;;;;5020546;28;61918;-78
2022/10/21 06:24:26;;;;;;;;;4.00;2.50;;;;;;;;5020114;28;62053;-79
2022/10/21 06:26:52;;;;;;;;;1.67;1.67;;;;;;;;5021525;28;61825;-78
2022/10/21 06:29:17;;;;;;;;;1.50;1.00;;;;;;;;5026688;28;62011;-78
2022/10/21 06:31:43;;;;;;;;;4.75;1.75;;;;;;;;5047070;28;62173;-77
2022/10/21 06:34:09;;;;;;;;;2.33;1.67;;;;;;;;5045032;28;61877;-78
2022/10/21 06:36:37;;;;;;;;;3.00;1.00;;;;;;;;5027050;28;62321;-78
2022/10/21 06:39:03;;;;;;;;;2.00;1.25;;;;;;;;5044537;28;61728;-79
2022/10/21 06:41:33;;;;;;;;;1.00;1.00;;;;;;;;5044119;28;61849;-78
2022/10/21 06:44:02;;;;;;;;;0.25;0.25;;;;;;;;5044021;28;61722;-78
2022/10/21 06:46:28;;;;;;;;;3.00;1.00;;;;;;;;5026209;28;61887;-77
2022/10/21 06:48:53;;;;;;;;;2.75;2.75;;;;;;;;5026307;28;61816;-78
2022/10/21 06:51:22;;;;;;;;;3.00;2.00;;;;;;;;5044066;28;63474;-79
2022/10/21 06:53:51;;;;;;;;;2.00;1.00;;;;;;;;5043643;28;62017;-78
2022/10/21 06:56:17;;;;;;;;;2.25;1.50;;;;;;;;5044017;28;61880;-78
2022/10/21 06:58:45;;;;;;;;;3.25;2.00;;;;;;;;5029183;28;61688;-79
2022/10/21 07:01:12;;;;;;;;;7.00;3.00;;;;;;;;5025027;28;63668;-78
2022/10/21 07:03:37;;;;;;;;;3.75;1.25;;;;;;;;5025902;28;61811;-79
2022/10/21 07:06:03;;;;;;;;;4.00;2.00;;;;;;;;5026188;28;62057;-79
2022/10/21 07:08:29;;;;;;;;;1.00;1.00;;;;;;;;5025986;28;61862;-79
2022/10/21 07:10:54;;;;;;;;;2.67;1.00;;;;;;;;5043658;28;63031;-79
2022/10/21 07:13:20;;;;;;;;;3.00;2.75;;;;;;;;5044052;28;61978;-79
2022/10/21 07:15:46;;;;;;;;;3.25;1.50;;;;;;;;5025774;28;61751;-79
2022/10/21 07:18:11;;;;;;;;;2.00;1.00;;;;;;;;5025937;28;61766;-79
2022/10/21 07:20:36;;;;;;;;;1.00;1.00;;;;;;;;5043217;28;62153;-80
2022/10/21 07:23:01;;;;;;;;;2.00;1.00;;;;;;;;5025653;28;61954;-79
2022/10/21 07:25:27;;;;;;;;;2.00;2.00;;;;;;;;5025919;28;62009;-79
2022/10/21 07:27:52;;;;;;;;;0.67;0.67;;;;;;;;5044251;28;62104;-79
2022/10/21 07:30:17;;;;;;;;;1.00;1.00;;;;;;;;5042919;28;62049;-79
2022/10/21 07:32:42;;;;;;;;;3.00;1.00;;;;;;;;5044010;28;62318;-77
2022/10/21 07:35:08;;;;;;;;;2.67;1.67;;;;;;;;5043058;28;61949;-79
2022/10/21 07:37:33;;;;;;;;;1.00;1.00;;;;;;;;5025270;28;62052;-79
2022/10/21 07:39:58;;;;;;;;;2.00;2.00;;;;;;;;5024252;28;63639;-78
2022/10/21 07:42:24;;;;;;;;;1.00;1.00;;;;;;;;5042733;28;61841;-79
2022/10/21 07:44:49;;;;;;;;;1.00;1.00;;;;;;;;5042741;28;61857;-79
2022/10/21 07:47:14;;;;;;;;;1.00;1.00;;;;;;;;5043204;28;61781;-79
2022/10/21 07:49:40;;;;;;;;;2.00;2.00;;;;;;;;5042207;28;61942;-79
2022/10/21 07:52:05;;;;;;;;;2.33;1.00;;;;;;;;5025761;28;61758;-79
2022/10/21 07:54:30;;;;;;;;;2.00;2.00;;;;;;;;5043167;28;61803;-79
2022/10/21 07:56:55;;;;;;;;;4.00;2.00;;;;;;;;5044019;28;61774;-79
2022/10/21 07:59:21;;;;;;;;;2.67;1.00;;;;;;;;5042259;28;61803;-79
2022/10/21 08:01:47;;;;;;;;;3.00;3.00;;;;;;;;5025642;28;61895;-79
2022/10/21 08:04:14;;;;;;;;;2.00;2.00;;;;;;;;5043652;28;61807;-79
2022/10/21 08:06:40;;;;;;;;;2.00;1.00;;;;;;;;5043775;28;62146;-79
2022/10/21 08:09:05;;;;;;;;;2.00;2.00;;;;;;;;5042408;28;61839;-79
2022/10/21 08:11:31;;;;;;;;;3.00;1.25;;;;;;;;5025468;28;62053;-79
2022/10/21 08:13:57;;;;;;;;;2.75;1.75;;;;;;;;5044401;28;61697;-78
2022/10/21 08:16:23;;;;;;;;;2.67;0.67;;;;;;;;5043544;28;61728;-79
2022/10/21 08:18:48;;;;;;;;;2.00;2.00;;;;;;;;5042438;28;61849;-79
2022/10/21 08:21:14;;;;;;;;;2.75;2.00;;;;;;;;5024722;28;61933;-80
2022/10/21 08:23:39;;;;;;;;;3.75;3.00;;;;;;;;5043501;28;61783;-79
2022/10/21 08:26:06;;;;;;;;;4.00;1.00;;;;;;;;5025544;28;61951;-78
2022/10/21 08:28:32;;;;;;;;;0.33;0.33;;;;;;;;5053711;28;61897;-79
2022/10/21 08:31:13;;;;;;;;;1.67;1.00;;;;;;;;5054305;28;61850;-79
2022/10/21 08:33:38;;;;;;;;;2.00;1.33;;;;;;;;5043140;28;61875;-80
2022/10/21 08:36:07;;;;;;;;;1.00;1.00;;;;;;;;5042988;28;61877;-79
2022/10/21 08:38:33;;;;;;;;;1.00;1.00;;;;;;;;5042309;28;62014;-79
2022/10/21 08:40:59;;;;;;;;;1.67;1.67;;;;;;;;5042982;28;61831;-79
2022/10/21 08:43:26;;;;;;;;;3.00;1.00;;;;;;;;5024681;28;61836;-79
2022/10/21 08:46:08;;;;;;;;;2.00;1.00;;;;;;;;5025223;28;61783;-79
2022/10/21 08:48:41;;;;;;;;;2.00;0.33;;;;;;;;5023871;28;65010;-79
2022/10/21 08:51:12;;;;;;;;;2.00;2.00;;;;;;;;5042795;28;62017;-79
2022/10/21 08:53:39;;;;;;;;;5.00;1.00;;;;;;;;5041833;28;61764;-79
2022/10/21 08:56:06;;;;;;;;;2.00;2.00;;;;;;;;5038910;28;61721;-79
2022/10/21 08:58:31;;;;;;;;;4.67;1.67;;;;;;;;5041149;28;61937;-79
2022/10/21 09:01:15;;;;;;;;;1.33;0.67;;;;;;;;5042708;28;61702;-79
2022/10/21 09:03:41;;;;;;;;;1.00;1.00;;;;;;;;5042671;28;61732;-79
2022/10/21 09:06:13;;;;;;;;;2.00;1.00;;;;;;;;5024540;28;61899;-79
2022/10/21 09:08:53;;;;;;;;;1.67;1.67;;;;;;;;5041923;28;62867;-79
2022/10/21 09:11:37;;;;;;;;;1.00;1.00;;;;;;;;5042230;28;61676;-79
2022/10/21 09:14:02;;;;;;;;;1.33;0.67;;;;;;;;5042491;28;61763;-79
2022/10/21 09:17:00;;;;;;;;;1.00;0.67;;;;;;;;5024479;28;62214;-79
2022/10/21 09:19:44;;;;;;;;;1.67;1.00;;;;;;;;4997056;28;61942;-79
2022/10/21 09:22:09;;;;;;;;;1.67;1.00;;;;;;;;5024500;28;61788;-79
2022/10/21 09:24:41;;;;;;;;;1.00;1.00;;;;;;;;5023751;28;61791;-79
2022/10/21 09:27:08;;;;;;;;;1.00;1.00;;;;;;;;5042472;28;62066;-80
2022/10/21 09:29:40;;;;;;;;;2.00;1.67;;;;;;;;5021462;28;62956;-80
2022/10/21 09:32:13;;;;;;;;;2.00;1.00;;;;;;;;5022678;28;61785;-80
2022/10/21 09:34:39;;;;;;;;;1.33;0.67;;;;;;;;5042060;28;61724;-80
2022/10/21 09:37:05;;;;;;;;;2.33;1.67;;;;;;;;5024324;28;61751;-80
2022/10/21 09:39:44;;;;;;;;;2.33;1.67;;;;;;;;5041600;28;61892;-80
2022/10/21 09:42:11;;;;;;;;;1.33;1.00;;;;;;;;5042059;28;61822;-80
2022/10/21 09:44:37;;;;;;;;;3.00;3.00;;;;;;;;5023881;28;61826;-80
2022/10/21 09:47:05;;;;;;;;;3.00;1.33;;;;;;;;5024327;28;62055;-80
2022/10/21 09:49:35;;;;;;;;;2.00;2.00;;;;;;;;5023486;28;63190;-80
2022/10/21 09:52:02;;;;;;;;;1.00;1.00;;;;;;;;5041931;28;61991;-79
2022/10/21 09:54:32;;;;;;;;;2.33;2.33;;;;;;;;5041885;28;61780;-80
2022/10/21 09:57:22;;;;;;;;;2.00;2.00;;;;;;;;5041962;28;61872;-80
2022/10/21 09:59:50;;;;;;;;;2.33;1.00;;;;;;;;5035502;28;62107;-80
2022/10/21 10:02:22;;;;;;;;;3.33;2.33;;;;;;;;5022917;28;62102;-80
2022/10/21 10:04:48;;;;;;;;;3.67;1.00;;;;;;;;5023158;28;61898;-80
2022/10/21 10:07:26;;;;;;;;;1.00;1.00;;;;;;;;5026592;28;61784;-80
2022/10/21 10:09:52;;;;;;;;;2.00;2.00;;;;;;;;5044031;28;61816;-78
2022/10/21 10:12:21;;;;;;;;;2.00;2.00;;;;;;;;5044972;28;61739;-79
2022/10/21 10:14:47;;;;;;;;;4.33;2.67;;;;;;;;5027477;28;61905;-79
2022/10/21 10:17:32;;;;;;;;;4.00;2.00;;;;;;;;5045520;28;61730;-79
2022/10/21 10:20:04;;;;;;;;;3.67;2.00;;;;;;;;5026268;28;63583;-79
2022/10/21 10:22:32;;;;;;;;;3.67;1.00;;;;;;;;5026852;28;61944;-78
2022/10/21 10:25:16;;;;;;;;;4.00;3.00;;;;;;;;5044302;28;61953;-80
2022/10/21 10:27:48;;;;;;;;;3.33;1.00;;;;;;;;5016688;28;61895;-81
2022/10/21 10:30:15;;;;;;;;;0.67;0.67;;;;;;;;5064940;28;61692;-80
2022/10/21 10:32:40;;;;;;;;;3.33;2.33;;;;;;;;5058339;28;61861;-79
2022/10/21 10:35:21;;;;;;;;;2.00;2.00;;;;;;;;5044913;28;61790;-82
2022/10/21 10:37:47;;;;;;;;;2.00;2.00;;;;;;;;5043261;28;62193;-76
2022/10/21 10:40:20;;;;;;;;;4.00;3.00;;;;;;;;5044075;28;61836;-78
2022/10/21 10:42:45;;;;;;;;;0.67;0.67;;;;;;;;5044978;28;61859;-78
2022/10/21 10:45:18;;;;;;;;;3.33;1.67;;;;;;;;5045290;28;62121;-78
2022/10/21 10:47:55;;;;;;;;;2.33;2.33;;;;;;;;5045040;28;61934;-78
2022/10/21 10:50:40;;;;;;;;;3.33;2.00;;;;;;;;5025423;28;64782;-78
2022/10/21 10:53:20;;;;;;;;;2.00;1.67;;;;;;;;5044265;28;61802;-78
2022/10/21 10:55:47;;;;;;;;;1.67;1.67;;;;;;;;5026598;28;61833;-78
2022/10/21 10:58:13;;;;;;;;;2.33;2.00;;;;;;;;5045737;28;61843;-78
2022/10/21 11:00:42;;;;;;;;;3.00;2.00;;;;;;;;5043939;28;63126;-78
2022/10/21 11:03:11;;;;;;;;;4.67;3.00;;;;;;;;5044467;28;62032;-78
2022/10/21 11:05:41;;;;;;;;;3.67;3.33;;;;;;;;5044434;28;61802;-77
2022/10/21 11:08:12;;;;;;;;;1.67;1.67;;;;;;;;5044500;28;61831;-78
2022/10/21 11:10:48;;;;;;;;;2.00;1.00;;;;;;;;5043509;28;62691;-78
2022/10/21 11:13:15;;;;;;;;;2.00;2.00;;;;;;;;5027047;28;61973;-78
2022/10/21 11:15:56;;;;;;;;;1.00;1.00;;;;;;;;5043946;28;61952;-78
2022/10/21 11:18:21;;;;;;;;;1.33;1.00;;;;;;;;5045845;28;62018;-78
2022/10/21 11:21:09;;;;;;;;;0.67;0.67;;;;;;;;5025268;28;65176;-79
2022/10/21 11:23:41;;;;;;;;;3.33;1.00;;;;;;;;5016156;28;62017;-78
2022/10/21 11:26:25;;;;;;;;;2.33;1.33;;;;;;;;5042717;28;61822;-79
2022/10/21 11:28:58;;;;;;;;;5.00;1.00;;;;;;;;5043240;28;61908;-78
2022/10/21 11:31:23;;;;;;;;;0.67;0.67;;;;;;;;5043403;28;63081;-78
2022/10/21 11:33:55;;;;;;;;;1.33;1.33;;;;;;;;5042772;28;62045;-78
2022/10/21 11:36:30;;;;;;;;;1.67;0.00;;;;;;;;5042696;28;61962;-79
2022/10/21 11:39:10;;;;;;;;;0.67;0.67;;;;;;;;5043514;28;61972;-78
2022/10/21 11:41:38;;;;;;;;;0.33;0.00;;;;;;;;5024965;28;62864;-78
2022/10/21 11:44:04;;;;;;;;;1.00;1.00;;;;;;;;5043152;28;61932;-78
2022/10/21 11:46:48;;;;;;;;;5.00;1.00;;;;;;;;5025196;28;62474;-78
2022/10/21 11:49:28;;;;;;;;;0.00;0.00;;;;;;;;5025286;28;61775;-79
2022/10/21 11:51:56;;;;;;;;;2.33;0.00;;;;;;;;5042835;28;61776;-79
2022/10/21 11:54:22;;;;;;;;;1.00;0.00;;;;;;;;5043032;28;61756;-78
2022/10/21 11:56:53;;;;;;;;;2.00;0.67;;;;;;;;5025860;28;61917;-79
2022/10/21 11:59:24;;;;;;;;;2.00;0.33;;;;;;;;5043720;28;62170;-79
2022/10/21 12:01:57;;;;;;;;;1.00;0.00;;;;;;;;5042867;28;61793;-79
2022/10/21 12:04:23;;;;;;;;;0.00;0.00;;;;;;;;5042848;28;61739;-78
2022/10/21 12:07:16;;;;;;;;;0.67;0.00;;;;;;;;5043134;28;61994;-77
2022/10/21 12:09:48;;;;;;;;;0.00;0.00;;;;;;;;5032518;28;61913;-78
2022/10/21 12:12:19;;;;;;;;;0.00;0.00;;;;;;;;5056693;28;61795;-79
2022/10/21 12:14:50;;;;;;;;;0.67;0.67;;;;;;;;5041574;28;61778;-78
2022/10/21 12:17:20;;;;;;;;;1.67;0.00;;;;;;;;5043500;28;61861;-78
2022/10/21 12:19:52;;;;;;;;;1.00;0.00;;;;;;;;5042998;28;61715;-77
2022/10/21 12:22:17;;;;;;;;;2.00;1.00;;;;;;;;5023902;28;63884;-78
2022/10/21 12:24:47;;;;;;;;;2.33;0.67;;;;;;;;5024053;28;61775;-79
2022/10/21 12:27:16;;;;;;;;;0.00;0.00;;;;;;;;5041520;28;61773;-80
2022/10/21 12:29:42;;;;;;;;;1.00;0.00;;;;;;;;5022165;28;61767;-80
2022/10/21 12:32:26;;;;;;;;;0.00;0.00;;;;;;;;5009770;28;64024;-80
2022/10/21 12:34:52;;;;;;;;;0.00;0.00;;;;;;;;5024684;28;61889;-79
2022/10/21 12:37:45;;;;;;;;;3.67;1.67;;;;;;;;5024217;28;61922;-79
2022/10/21 12:40:10;;;;;;;;;0.00;0.00;;;;;;;;5021239;28;61914;-79
2022/10/21 12:42:36;;;;;;;;;3.33;0.00;;;;;;;;5042032;28;63007;-81
2022/10/21 12:45:01;;;;;;;;;1.33;0.00;;;;;;;;5042735;28;61881;-79
2022/10/21 12:47:31;;;;;;;;;1.33;0.00;;;;;;;;5042765;28;62041;-79
2022/10/21 12:50:22;;;;;;;;;1.67;0.33;;;;;;;;5042561;28;62056;-79
2022/10/21 12:53:03;;;;;;;;;1.00;1.00;;;;;;;;5037877;28;62844;-80
2022/10/21 12:55:34;;;;;;;;;0.00;0.00;;;;;;;;5022641;28;61911;-80
2022/10/21 12:58:01;;;;;;;;;0.33;0.00;;;;;;;;5022664;28;61888;-79
2022/10/21 13:00:26;;;;;;;;;2.33;0.67;;;;;;;;5022790;28;61708;-79
2022/10/21 13:03:11;;;;;;;;;0.00;0.00;;;;;;;;5022017;28;62821;-79
2022/10/21 13:05:36;;;;;;;;;0.00;0.00;;;;;;;;5004664;28;61820;-80
2022/10/21 13:08:21;;;;;;;;;0.00;0.00;;;;;;;;5022693;28;62101;-80
2022/10/21 13:11:02;;;;;;;;;1.00;1.00;;;;;;;;5015389;28;62165;-79
2022/10/21 13:13:46;;;;;;;;;2.67;0.00;;;;;;;;5041664;28;62556;-80
2022/10/21 13:16:18;;;;;;;;;0.33;0.33;;;;;;;;5042519;28;61708;-80
2022/10/21 13:18:50;;;;;;;;;1.00;0.00;;;;;;;;5024339;28;61751;-79
2022/10/21 13:21:29;;;;;;;;;2.00;0.00;;;;;;;;5024496;28;62024;-79
2022/10/21 13:24:04;;;;;;;;;1.00;1.00;;;;;;;;5041722;28;61712;-79
2022/10/21 13:26:30;;;;;;;;;3.33;0.33;;;;;;;;5023804;28;61876;-78
2022/10/21 13:29:00;;;;;;;;;1.33;0.00;;;;;;;;5056924;28;62235;-79
2022/10/21 13:31:26;;;;;;;;;3.00;0.00;;;;;;;;5047124;28;61901;-80
2022/10/21 13:33:53;;;;;;;;;1.33;0.00;;;;;;;;5041595;28;61849;-79
2022/10/21 13:36:34;;;;;;;;;1.00;0.00;;;;;;;;5040993;28;61811;-79
2022/10/21 13:39:02;;;;;;;;;2.33;0.00;;;;;;;;5042447;28;62175;-79
2022/10/21 13:41:29;;;;;;;;;0.00;0.00;;;;;;;;5043502;28;61893;-80
2022/10/21 13:43:57;;;;;;;;;0.00;0.00;;;;;;;;5042431;28;61687;-79
2022/10/21 13:46:25;;;;;;;;;0.00;0.00;;;;;;;;5042375;28;61848;-80
2022/10/21 13:48:51;;;;;;;;;2.67;0.33;;;;;;;;5025079;28;61928;-80
2022/10/21 13:51:20;;;;;;;;;2.00;1.00;;;;;;;;5043223;28;61762;-79
2022/10/21 13:53:47;;;;;;;;;5.33;2.00;;;;;;;;5041914;28;61862;-79
2022/10/21 13:56:20;;;;;;;;;2.00;1.00;;;;;;;;5042155;28;61942;-80
2022/10/21 13:58:45;;;;;;;;;1.67;0.67;;;;;;;;5023564;28;61771;-79
2022/10/21 14:01:13;;;;;;;;;4.00;0.33;;;;;;;;5043160;28;61720;-78
2022/10/21 14:03:40;;;;;;;;;3.67;0.00;;;;;;;;5023164;28;62839;-79
2022/10/21 14:06:08;;;;;;;;;1.00;1.00;;;;;;;;5041992;28;61971;-79
2022/10/21 14:08:37;;;;;;;;;1.67;0.67;;;;;;;;5023665;28;61928;-78
2022/10/21 14:11:13;;;;;;;;;1.00;1.00;;;;;;;;5041647;28;61775;-79
2022/10/21 14:13:38;;;;;;;;;2.67;0.00;;;;;;;;5040784;28;61811;-80
2022/10/21 14:16:05;;;;;;;;;0.33;0.00;;;;;;;;5041395;28;62157;-79
2022/10/21 14:18:33;;;;;;;;;0.00;0.00;;;;;;;;5041430;28;61684;-80
2022/10/21 14:20:59;;;;;;;;;0.00;0.00;;;;;;;;5023791;28;61753;-80
2022/10/21 14:23:25;;;;;;;;;1.33;0.67;;;;;;;;5041067;28;61750;-79
2022/10/21 14:25:52;;;;;;;;;0.00;0.00;;;;;;;;5023041;28;61917;-80
2022/10/21 14:28:19;;;;;;;;;0.00;0.00;;;;;;;;5050194;28;61712;-79
2022/10/21 14:30:45;;;;;;;;;1.33;0.00;;;;;;;;5053947;28;62104;-81
2022/10/21 14:33:14;;;;;;;;;0.67;0.00;;;;;;;;5040776;28;61815;-79
2022/10/21 14:35:40;;;;;;;;;0.00;0.00;;;;;;;;5023107;28;61799;-79
2022/10/21 14:38:24;;;;;;;;;0.00;0.00;;;;;;;;5041485;28;61689;-79
2022/10/21 14:40:58;;;;;;;;;0.00;0.00;;;;;;;;5041213;28;61866;-80
2022/10/21 14:43:36;;;;;;;;;0.00;0.00;;;;;;;;5040529;28;62569;-80
2022/10/21 14:46:03;;;;;;;;;1.00;0.00;;;;;;;;5040793;28;61834;-79
2022/10/21 14:48:30;;;;;;;;;1.00;1.00;;;;;;;;5022785;28;62050;-79
2022/10/21 14:51:00;;;;;;;;;0.00;0.00;;;;;;;;5041472;28;61943;-79